David L. Griggs — WDE5778 — position and weather

sailwx.info

Track history (hours):
 
Tides and Currents Weather Stations Pressure Air Temp Water Temp Dewpoint Dewpoint Depression Visibility Wind Speed Wind Dir Waves Ship Positions

David L. Griggs

Owner: Marquette Transportation Company, LLC, Paducah, KY. More information available from US FCC via Universal Licensing System and Coast Guard Vessel Documentation Center.

Last reported at 2017-Feb-26 11:10 UTC. Time now 2017-Mar-25 15:33 UTC.
Position N 32°40' W 091°08'.
Warning: this ship's position is 27 days out of date.

Length 50 m.

Type: Tow > 200 m length. MMSI: 367371510.

Date/timePositionNaut miles runAvg speedWind from/ knotsBaromVisibWave heightAir tempDewpointWater temp
2017-Feb-26 11:10N 32°40' W 091°08'3 4.8
2017-Feb-26 10:33N 32°37' W 091°09'5 4.7
2017-Feb-26 09:33N 32°33' W 091°06'5 5.0
2017-Feb-26 08:33N 32°28' W 091°06'5 5.2
2017-Feb-26 07:33N 32°25' W 091°00'4 4.3
2017-Feb-26 06:33N 32°21' W 090°59'5 4.9
2017-Feb-26 05:33N 32°20' W 090°54'3 2.5
2017-Feb-26 04:33N 32°18' W 090°56'0 0.1
2017-Feb-26 03:33N 32°18' W 090°56'5 4.7
2017-Feb-26 02:33N 32°14' W 090°59'5 4.8
2017-Feb-26 01:33N 32°09' W 091°00'4 3.5
2017-Feb-26 00:33N 32°08' W 091°04'  
2017-Feb-22 02:33N 29°58' W 090°15'  
2017-Feb-19 13:14N 30°07' W 090°58'0 0.0
2017-Feb-19 12:33N 30°07' W 090°58'0 0.0
2017-Feb-19 10:19N 30°07' W 090°58'0 0.0
2017-Feb-19 08:07N 30°07' W 090°58'0 0.0
2017-Feb-19 07:33N 30°07' W 090°58'0 0.0
2017-Feb-19 06:26N 30°07' W 090°58'0 0.0
2017-Feb-19 05:27N 30°07' W 090°58'111 3.1
2017-Feb-17 18:05N 31°57' W 091°11'5 8.4
2017-Feb-17 17:31N 31°59' W 091°06'7 7.8
2017-Feb-17 16:33N 32°07' W 091°06'6 5.5
2017-Feb-17 15:33N 32°09' W 091°00'9 9.1
2017-Feb-17 14:33N 32°17' W 090°56'5 4.7
2017-Feb-17 13:33N 32°21' W 090°59'7 7.0
2017-Feb-17 12:33N 32°27' W 091°04'8 8.1
2017-Feb-17 11:33N 32°34' W 091°07'  
Track history (hours):
 
Tides and Currents Weather Stations Pressure Air Temp Water Temp Dewpoint Dewpoint Depression Visibility Wind Speed Wind Dir Waves Ship Positions

David L. Griggs

Owner: Marquette Transportation Company, LLC, Paducah, KY. More information available from US FCC via Universal Licensing System and Coast Guard Vessel Documentation Center.

Last reported at 2017-Feb-26 11:10 UTC. Time now 2017-Mar-25 15:33 UTC.
Position N 32°40' W 091°08'.
Warning: this ship's position is 27 days out of date.

Length 50 m.

Type: Tow > 200 m length. MMSI: 367371510.

Date/timePositionNaut miles runAvg speedWind from/ knotsBaromVisibWave heightAir tempDewpointWater temp
2017-Feb-26 11:10N 32°40' W 091°08'3 4.8
2017-Feb-26 10:33N 32°37' W 091°09'5 4.7
2017-Feb-26 09:33N 32°33' W 091°06'5 5.0
2017-Feb-26 08:33N 32°28' W 091°06'5 5.2
2017-Feb-26 07:33N 32°25' W 091°00'4 4.3
2017-Feb-26 06:33N 32°21' W 090°59'5 4.9
2017-Feb-26 05:33N 32°20' W 090°54'3 2.5
2017-Feb-26 04:33N 32°18' W 090°56'0 0.1
2017-Feb-26 03:33N 32°18' W 090°56'5 4.7
2017-Feb-26 02:33N 32°14' W 090°59'5 4.8
2017-Feb-26 01:33N 32°09' W 091°00'4 3.5
2017-Feb-26 00:33N 32°08' W 091°04'  
2017-Feb-22 02:33N 29°58' W 090°15'  
2017-Feb-19 13:14N 30°07' W 090°58'0 0.0
2017-Feb-19 12:33N 30°07' W 090°58'0 0.0
2017-Feb-19 10:19N 30°07' W 090°58'0 0.0
2017-Feb-19 08:07N 30°07' W 090°58'0 0.0
2017-Feb-19 07:33N 30°07' W 090°58'0 0.0
2017-Feb-19 06:26N 30°07' W 090°58'0 0.0
2017-Feb-19 05:27N 30°07' W 090°58'111 3.1
2017-Feb-17 18:05N 31°57' W 091°11'5 8.4
2017-Feb-17 17:31N 31°59' W 091°06'7 7.8
2017-Feb-17 16:33N 32°07' W 091°06'6 5.5
2017-Feb-17 15:33N 32°09' W 091°00'9 9.1
2017-Feb-17 14:33N 32°17' W 090°56'5 4.7
2017-Feb-17 13:33N 32°21' W 090°59'7 7.0
2017-Feb-17 12:33N 32°27' W 091°04'8 8.1
2017-Feb-17 11:33N 32°34' W 091°07'  

Dump ship's entire track history